Aviation Digital Data Service (ADDS)

Output produced by METARs form (0746 UTC 18 January 2018)
found at http://aviationweather.gov/adds/metars/
 
KFRG 180653Z 32006KT 10SM FEW017 M06/M09 A3011 RMK AO2 SLP196 T10561094
KISP 180656Z AUTO 35011KT 10SM CLR M05/M11 A3008 RMK AO2 SLP188 T10501106
KISP 180539Z 1806/1906 33008KT P6SM SKC 
     FM181500 31014G22KT P6SM SKC 
     FM182300 31010KT P6SM SKC
       
KJFK 180651Z 32012KT 10SM FEW170 M06/M12 A3013 RMK AO2 SLP203 T10611117 $
KJFK 180539Z 1806/1912 31012KT P6SM SKC 
     FM181500 29014G20KT P6SM SKC 
     FM181800 31015G22KT P6SM FEW030 
     FM190000 31012G18KT P6SM SKC 
     FM190400 29010KT P6SM SKC
       
KBDR 180652Z AUTO 31006KT 10SM CLR M07/M12 A3011 RMK AO2 SLP196 T10671122
KBDR 180539Z 1806/1906 32008KT P6SM SKC 
     FM181500 31012G20KT P6SM SKC 
     FM182300 31007KT P6SM SKC